Terminal Aerodrome Forecast
Issued by NWS Boston, MA

Home | Current Version | Previous Version | Text Only | Print | Product List | Glossary On
Versions: 1 2 3 4 5 6 7 8 9 10 11 12 13 14 15 16 17 18 19 20 21 22 23 24 25 26 27 28 29 30 31
000
FTUS41 KBOX 292331
TAFBDL
TAF
KBDL 292331Z 3000/0106 06008KT P6SM SCT045 BKN150
     FM300400 04008KT P6SM OVC045
     FM300900 04009KT P6SM VCSH BKN020
     FM301500 04009KT 4SM -SHRA OVC050
     FM302300 05009KT 2SM -SHRA BR OVC030
     FM010200 05009KT 3SM -SHRA BR OVC015=

USA.gov is the U.S. government's official web portal to all federal, state and local government web resources and services.